Observations for Trim Patrick St
| Time | AQI | Temp °C | Hum % | Pres Pa | CO μg/m³ | H₂S μg/m³ | NO μg/m³ | NO₂ μg/m³ | O₃ μg/m³ | SO₂ μg/m³ | PM1 μg/m³ | PM2.5 μg/m³ | PM10 μg/m³ |
|---|---|---|---|---|---|---|---|---|---|---|---|---|---|
| Saturday 8 August 2026 | |||||||||||||
| 17:22 | 3 | 33.7 | 30 | 69,462 | 0 | 7.89 | 0.59 | 13.48 | 96.25 | 20.04 | 2 | 7.64 | 8.41 |
| 17:21 | 3 | 33.8 | 30 | 69,467 | 0 | 12.86 | 0.57 | 33.81 | 72.42 | 19.15 | 2 | 8.48 | 9.33 |
| 17:20 | 3 | 33.9 | 30 | 69,450 | 0 | 3.53 | 0.53 | 13.17 | 99.23 | 20.39 | 2 | 7.68 | 8.45 |
| 17:13 | 3 | 34.4 | 30 | 69,475 | 0 | 6.27 | 0.39 | 13.55 | 110.71 | 21.3 | 2 | 7.69 | 8.46 |
| 17:12 | 3 | 34.5 | 29 | 69,483 | 0 | 0 | 0.42 | 13.3 | 97.2 | 19.66 | 2.86 | 8.53 | 9.39 |
| 17:11 | 3 | 34.4 | 30 | 69,464 | 0 | 0 | 0.39 | 12.84 | 111.94 | 20.21 | 2.86 | 8.45 | 9.3 |
| 17:10 | 3 | 34.3 | 31 | 69,473 | 0 | 0 | 0.38 | 12.63 | 82.29 | 20.29 | 2.86 | 8.41 | 9.25 |
| 17:07 | 3 | 33.9 | 31 | 69,438 | 0 | 0 | 0.52 | 12.89 | 100.28 | 19.74 | 2.86 | 8.4 | 9.24 |
| 17:04 | 3 | 33.7 | 31 | 69,442 | 0 | 0 | 0.5 | 11.04 | 91.59 | 20.06 | 2 | 7.59 | 8.35 |
| 17:03 | 3 | 33.7 | 31 | 69,440 | 0 | 0 | 0.53 | 11.04 | 81.78 | 19.38 | 2 | 8.43 | 9.27 |
| 17:02 | 3 | 33.8 | 30 | 69,444 | 0 | 0 | 0.5 | 12.18 | 77.75 | 19.21 | 2 | 8.45 | 9.3 |
| 17:01 | 3 | 33.9 | 30 | 69,444 | 0 | 0 | 0.48 | 13.14 | 81.69 | 19.18 | 2 | 7.64 | 8.41 |
| 17:00 | 3 | 34.1 | 30 | 69,452 | 0 | 0 | 0.48 | 13.02 | 83.22 | 19.6 | 2 | 7.66 | 8.42 |
| 16:59 | 3 | 34.2 | 30 | 69,456 | 0 | 0 | 0.49 | 8.39 | 79.51 | 20.57 | 2 | 7.67 | 8.44 |
| 16:58 | 3 | 34.4 | 30 | 69,462 | 0 | 6.27 | 0.46 | 13.13 | 106.53 | 21.08 | 2 | 7.71 | 8.48 |
| 16:57 | 3 | 34.6 | 29 | 69,467 | 0 | 0.37 | 0.39 | 14.84 | 135.47 | 20.88 | 2 | 7.74 | 8.51 |
| 16:56 | 3 | 34.8 | 28 | 69,477 | 0 | 0 | 0.35 | 11.05 | 75.1 | 20.88 | 2 | 7.78 | 8.56 |
| 16:55 | 3 | 35 | 29 | 69,495 | 0 | 0 | 0.31 | 11.44 | 69.73 | 20.04 | 2 | 7.76 | 8.53 |
| 16:54 | 3 | 35.2 | 28 | 69,513 | 0 | 0 | 0.28 | 12.45 | 73.72 | 20.32 | 2 | 7.77 | 8.55 |
| 16:53 | 3 | 35.4 | 28 | 69,507 | 0 | 0 | 0.25 | 12.04 | 74.34 | 19.99 | 2 | 7.79 | 8.57 |